sensor_id;sensor_type;location;lat;lon;timestamp;pressure;altitude;pressure_sealevel;temperature;humidity
60970;BME280;46841;48.938;9.502;2024-02-15T00:01:55;98994.38;;;8.90;88.94
60970;BME280;46841;48.938;9.502;2024-02-15T00:04:21;98994.25;;;8.87;89.16
60970;BME280;46841;48.938;9.502;2024-02-15T00:06:46;98991.34;;;8.81;89.21
60970;BME280;46841;48.938;9.502;2024-02-15T00:09:12;98984.16;;;8.79;89.22
60970;BME280;46841;48.938;9.502;2024-02-15T00:11:38;98988.81;;;8.84;89.37
60970;BME280;46841;48.938;9.502;2024-02-15T00:14:04;98997.31;;;8.76;89.52
60970;BME280;46841;48.938;9.502;2024-02-15T00:16:30;99001.97;;;8.81;89.48
60970;BME280;46841;48.938;9.502;2024-02-15T00:18:56;99000.31;;;8.83;89.22
60970;BME280;46841;48.938;9.502;2024-02-15T00:21:22;98999.97;;;8.76;89.40
60970;BME280;46841;48.938;9.502;2024-02-15T00:23:48;99003.72;;;8.81;88.90
60970;BME280;46841;48.938;9.502;2024-02-15T00:26:14;99001.63;;;8.72;89.71
60970;BME280;46841;48.938;9.502;2024-02-15T00:28:43;99011.72;;;8.81;89.47
60970;BME280;46841;48.938;9.502;2024-02-15T00:31:10;99002.91;;;8.82;89.05
60970;BME280;46841;48.938;9.502;2024-02-15T00:33:35;99000.53;;;8.89;88.73
60970;BME280;46841;48.938;9.502;2024-02-15T00:36:02;98996.59;;;8.80;88.87
60970;BME280;46841;48.938;9.502;2024-02-15T00:38:29;98999.97;;;8.76;89.26
60970;BME280;46841;48.938;9.502;2024-02-15T00:40:54;98993.66;;;8.72;88.93
60970;BME280;46841;48.938;9.502;2024-02-15T00:43:20;98986.53;;;8.50;90.14
60970;BME280;46841;48.938;9.502;2024-02-15T00:45:45;98991.66;;;8.45;90.45
60970;BME280;46841;48.938;9.502;2024-02-15T00:48:12;98990.56;;;8.40;90.58
60970;BME280;46841;48.938;9.502;2024-02-15T00:50:37;98993.50;;;8.27;90.96
60970;BME280;46841;48.938;9.502;2024-02-15T00:53:03;98997.13;;;8.08;91.96
60970;BME280;46841;48.938;9.502;2024-02-15T00:55:29;98993.50;;;8.06;92.86
60970;BME280;46841;48.938;9.502;2024-02-15T00:57:55;98989.25;;;7.90;92.57
60970;BME280;46841;48.938;9.502;2024-02-15T01:00:21;98997.19;;;7.89;93.33
60970;BME280;46841;48.938;9.502;2024-02-15T01:02:46;98990.75;;;8.05;93.86
60970;BME280;46841;48.938;9.502;2024-02-15T01:05:12;98983.28;;;8.15;93.22
60970;BME280;46841;48.938;9.502;2024-02-15T01:07:41;98986.91;;;8.17;93.07
60970;BME280;46841;48.938;9.502;2024-02-15T01:10:10;98984.56;;;8.25;93.08
60970;BME280;46841;48.938;9.502;2024-02-15T01:12:36;98985.28;;;8.21;92.88
60970;BME280;46841;48.938;9.502;2024-02-15T01:15:02;98984.63;;;8.06;93.01
60970;BME280;46841;48.938;9.502;2024-02-15T01:17:28;98984.94;;;7.92;94.34
60970;BME280;46841;48.938;9.502;2024-02-15T01:19:54;98987.34;;;7.86;94.30
60970;BME280;46841;48.938;9.502;2024-02-15T01:22:20;98985.28;;;7.81;94.45
60970;BME280;46841;48.938;9.502;2024-02-15T01:24:48;98983.47;;;7.80;94.64
60970;BME280;46841;48.938;9.502;2024-02-15T01:27:15;98983.44;;;7.78;95.00
60970;BME280;46841;48.938;9.502;2024-02-15T01:29:42;98983.03;;;7.69;94.93
60970;BME280;46841;48.938;9.502;2024-02-15T01:32:09;98977.34;;;7.61;94.97
60970;BME280;46841;48.938;9.502;2024-02-15T01:34:34;98979.53;;;7.51;94.87
60970;BME280;46841;48.938;9.502;2024-02-15T01:37:00;98979.22;;;7.43;95.55
60970;BME280;46841;48.938;9.502;2024-02-15T01:39:26;98980.31;;;7.29;95.52
60970;BME280;46841;48.938;9.502;2024-02-15T01:41:51;98983.72;;;7.26;96.12
60970;BME280;46841;48.938;9.502;2024-02-15T01:44:21;98980.22;;;7.08;96.13
60970;BME280;46841;48.938;9.502;2024-02-15T01:46:49;98986.84;;;6.98;96.75
60970;BME280;46841;48.938;9.502;2024-02-15T01:49:25;98982.84;;;6.88;96.50
60970;BME280;46841;48.938;9.502;2024-02-15T01:51:54;98988.38;;;6.75;96.92
60970;BME280;46841;48.938;9.502;2024-02-15T01:54:22;98988.09;;;6.69;97.23
60970;BME280;46841;48.938;9.502;2024-02-15T01:56:48;98991.88;;;6.56;98.48
60970;BME280;46841;48.938;9.502;2024-02-15T01:59:17;98989.41;;;6.41;98.75
60970;BME280;46841;48.938;9.502;2024-02-15T02:01:44;98994.78;;;6.43;98.31
60970;BME280;46841;48.938;9.502;2024-02-15T02:04:10;98988.19;;;6.53;98.78
60970;BME280;46841;48.938;9.502;2024-02-15T02:06:39;98985.44;;;6.69;99.12
60970;BME280;46841;48.938;9.502;2024-02-15T02:09:09;98986.44;;;6.71;98.96
60970;BME280;46841;48.938;9.502;2024-02-15T02:11:36;98983.41;;;6.63;99.08
60970;BME280;46841;48.938;9.502;2024-02-15T02:14:02;98978.06;;;6.62;99.67
60970;BME280;46841;48.938;9.502;2024-02-15T02:16:29;98982.56;;;6.47;98.93
60970;BME280;46841;48.938;9.502;2024-02-15T02:18:57;98980.69;;;6.44;99.57
60970;BME280;46841;48.938;9.502;2024-02-15T02:21:26;98981.38;;;6.40;99.24
60970;BME280;46841;48.938;9.502;2024-02-15T02:23:57;98974.56;;;6.45;100.00
60970;BME280;46841;48.938;9.502;2024-02-15T02:26:23;98983.19;;;6.41;99.70
60970;BME280;46841;48.938;9.502;2024-02-15T02:28:50;98982.72;;;6.32;100.00
60970;BME280;46841;48.938;9.502;2024-02-15T02:31:19;98973.59;;;6.25;99.54
60970;BME280;46841;48.938;9.502;2024-02-15T02:33:50;98975.94;;;6.19;99.85
60970;BME280;46841;48.938;9.502;2024-02-15T02:36:19;98975.31;;;6.07;100.00
60970;BME280;46841;48.938;9.502;2024-02-15T02:38:45;98974.69;;;5.95;100.00
60970;BME280;46841;48.938;9.502;2024-02-15T02:41:11;98976.75;;;6.00;100.00
60970;BME280;46841;48.938;9.502;2024-02-15T02:43:39;98979.94;;;6.11;100.00
60970;BME280;46841;48.938;9.502;2024-02-15T02:46:05;98976.78;;;6.18;100.00
60970;BME280;46841;48.938;9.502;2024-02-15T02:48:35;98971.75;;;6.06;100.00
60970;BME280;46841;48.938;9.502;2024-02-15T02:51:01;98980.28;;;6.01;100.00
60970;BME280;46841;48.938;9.502;2024-02-15T02:53:28;98978.09;;;5.92;100.00
60970;BME280;46841;48.938;9.502;2024-02-15T02:55:55;98976.72;;;5.84;100.00
60970;BME280;46841;48.938;9.502;2024-02-15T02:58:21;98977.75;;;5.86;100.00
60970;BME280;46841;48.938;9.502;2024-02-15T03:00:50;98978.81;;;5.89;100.00
60970;BME280;46841;48.938;9.502;2024-02-15T03:03:17;98970.88;;;5.89;100.00
60970;BME280;46841;48.938;9.502;2024-02-15T03:05:44;98976.50;;;5.96;100.00
60970;BME280;46841;48.938;9.502;2024-02-15T03:08:11;98976.88;;;6.03;100.00
60970;BME280;46841;48.938;9.502;2024-02-15T03:10:43;98977.03;;;6.06;100.00
60970;BME280;46841;48.938;9.502;2024-02-15T03:13:09;98974.94;;;5.99;100.00
60970;BME280;46841;48.938;9.502;2024-02-15T03:15:36;98975.91;;;6.01;100.00
60970;BME280;46841;48.938;9.502;2024-02-15T03:18:03;98971.00;;;6.09;100.00
60970;BME280;46841;48.938;9.502;2024-02-15T03:20:33;98971.59;;;6.21;100.00
60970;BME280;46841;48.938;9.502;2024-02-15T03:23:02;98967.53;;;6.10;100.00
60970;BME280;46841;48.938;9.502;2024-02-15T03:25:28;98973.72;;;6.10;100.00
60970;BME280;46841;48.938;9.502;2024-02-15T03:27:59;98979.09;;;6.12;100.00
60970;BME280;46841;48.938;9.502;2024-02-15T03:30:30;98969.94;;;6.05;100.00
60970;BME280;46841;48.938;9.502;2024-02-15T03:32:59;98977.25;;;5.93;100.00
60970;BME280;46841;48.938;9.502;2024-02-15T03:35:26;98972.78;;;5.92;100.00
60970;BME280;46841;48.938;9.502;2024-02-15T03:37:52;98965.41;;;5.86;100.00
60970;BME280;46841;48.938;9.502;2024-02-15T03:40:18;98974.31;;;5.88;100.00
60970;BME280;46841;48.938;9.502;2024-02-15T03:42:45;98966.25;;;5.85;100.00
60970;BME280;46841;48.938;9.502;2024-02-15T03:45:13;98966.47;;;5.90;100.00
60970;BME280;46841;48.938;9.502;2024-02-15T03:47:39;98971.88;;;5.91;100.00
60970;BME280;46841;48.938;9.502;2024-02-15T03:50:06;98967.06;;;5.84;100.00
60970;BME280;46841;48.938;9.502;2024-02-15T03:52:34;98971.31;;;5.81;100.00
60970;BME280;46841;48.938;9.502;2024-02-15T03:55:00;98967.88;;;5.83;100.00
60970;BME280;46841;48.938;9.502;2024-02-15T03:57:27;98967.16;;;5.86;100.00
60970;BME280;46841;48.938;9.502;2024-02-15T03:59:56;98965.91;;;5.96;100.00
60970;BME280;46841;48.938;9.502;2024-02-15T04:02:24;98968.38;;;6.09;100.00
60970;BME280;46841;48.938;9.502;2024-02-15T04:04:52;98963.53;;;6.18;100.00
60970;BME280;46841;48.938;9.502;2024-02-15T04:07:24;98970.25;;;6.29;100.00
60970;BME280;46841;48.938;9.502;2024-02-15T04:09:53;98975.47;;;6.46;100.00
60970;BME280;46841;48.938;9.502;2024-02-15T04:12:18;98978.34;;;6.50;100.00
60970;BME280;46841;48.938;9.502;2024-02-15T04:14:44;98974.63;;;6.47;100.00
60970;BME280;46841;48.938;9.502;2024-02-15T04:17:11;98974.78;;;6.50;100.00
60970;BME280;46841;48.938;9.502;2024-02-15T04:19:41;98968.66;;;6.51;100.00
60970;BME280;46841;48.938;9.502;2024-02-15T04:22:07;98977.81;;;6.57;100.00
60970;BME280;46841;48.938;9.502;2024-02-15T04:24:34;98971.13;;;6.65;100.00
60970;BME280;46841;48.938;9.502;2024-02-15T04:27:06;98966.66;;;6.64;99.81
60970;BME280;46841;48.938;9.502;2024-02-15T04:29:38;98964.63;;;6.59;99.35
60970;BME280;46841;48.938;9.502;2024-02-15T04:32:07;98962.28;;;6.65;99.83
60970;BME280;46841;48.938;9.502;2024-02-15T04:34:36;98964.75;;;6.80;100.00
60970;BME280;46841;48.938;9.502;2024-02-15T04:37:03;98960.56;;;6.85;100.00
60970;BME280;46841;48.938;9.502;2024-02-15T04:39:35;98972.22;;;6.88;100.00
60970;BME280;46841;48.938;9.502;2024-02-15T04:42:02;98976.78;;;6.91;99.64
60970;BME280;46841;48.938;9.502;2024-02-15T04:44:28;98972.59;;;6.96;98.59
60970;BME280;46841;48.938;9.502;2024-02-15T04:46:54;98974.03;;;6.89;98.71
60970;BME280;46841;48.938;9.502;2024-02-15T04:49:20;98973.72;;;7.01;98.46
60970;BME280;46841;48.938;9.502;2024-02-15T04:51:47;98982.59;;;7.02;98.41
60970;BME280;46841;48.938;9.502;2024-02-15T04:54:19;98975.75;;;7.07;98.39
60970;BME280;46841;48.938;9.502;2024-02-15T04:56:45;98964.88;;;7.01;97.56
60970;BME280;46841;48.938;9.502;2024-02-15T04:59:11;98966.91;;;7.06;98.19
60970;BME280;46841;48.938;9.502;2024-02-15T05:01:41;98965.09;;;7.05;97.70
60970;BME280;46841;48.938;9.502;2024-02-15T05:04:10;98964.72;;;7.17;97.66
60970;BME280;46841;48.938;9.502;2024-02-15T05:06:36;98960.28;;;7.16;97.59
60970;BME280;46841;48.938;9.502;2024-02-15T05:09:02;98967.38;;;7.17;97.02
60970;BME280;46841;48.938;9.502;2024-02-15T05:11:40;98966.00;;;7.25;96.82
60970;BME280;46841;48.938;9.502;2024-02-15T05:14:13;98955.03;;;7.17;96.34
60970;BME280;46841;48.938;9.502;2024-02-15T05:16:45;98952.59;;;7.22;96.57
60970;BME280;46841;48.938;9.502;2024-02-15T05:19:15;98957.03;;;7.23;96.49
60970;BME280;46841;48.938;9.502;2024-02-15T05:21:42;98947.56;;;7.28;96.11
60970;BME280;46841;48.938;9.502;2024-02-15T05:24:14;98953.28;;;7.37;95.38
60970;BME280;46841;48.938;9.502;2024-02-15T05:26:41;98949.72;;;7.37;95.36
60970;BME280;46841;48.938;9.502;2024-02-15T05:29:12;98952.13;;;7.52;94.50
60970;BME280;46841;48.938;9.502;2024-02-15T05:31:42;98949.84;;;7.40;94.56
60970;BME280;46841;48.938;9.502;2024-02-15T05:34:10;98945.88;;;7.30;95.30
60970;BME280;46841;48.938;9.502;2024-02-15T05:36:39;98949.84;;;7.40;95.42
60970;BME280;46841;48.938;9.502;2024-02-15T05:39:05;98953.63;;;7.45;95.44
60970;BME280;46841;48.938;9.502;2024-02-15T05:41:31;98947.47;;;7.46;95.04
60970;BME280;46841;48.938;9.502;2024-02-15T05:43:58;98944.31;;;7.55;94.97
60970;BME280;46841;48.938;9.502;2024-02-15T05:46:25;98949.63;;;7.55;94.86
60970;BME280;46841;48.938;9.502;2024-02-15T05:48:50;98951.19;;;7.50;94.43
60970;BME280;46841;48.938;9.502;2024-02-15T05:51:22;98948.69;;;7.53;94.58
60970;BME280;46841;48.938;9.502;2024-02-15T05:53:47;98950.59;;;7.57;94.58
60970;BME280;46841;48.938;9.502;2024-02-15T05:56:14;98950.47;;;7.54;94.58
60970;BME280;46841;48.938;9.502;2024-02-15T05:58:43;98955.34;;;7.64;94.37
60970;BME280;46841;48.938;9.502;2024-02-15T06:01:10;98956.31;;;7.66;94.43
60970;BME280;46841;48.938;9.502;2024-02-15T06:03:38;98958.28;;;7.70;94.23
60970;BME280;46841;48.938;9.502;2024-02-15T06:06:05;98949.34;;;7.68;93.87
60970;BME280;46841;48.938;9.502;2024-02-15T06:08:35;98946.28;;;7.59;94.31
60970;BME280;46841;48.938;9.502;2024-02-15T06:11:04;98945.78;;;7.67;94.30
60970;BME280;46841;48.938;9.502;2024-02-15T06:13:35;98952.00;;;7.68;94.01
60970;BME280;46841;48.938;9.502;2024-02-15T06:16:06;98946.53;;;7.65;93.82
60970;BME280;46841;48.938;9.502;2024-02-15T06:18:49;98955.16;;;7.80;93.74
60970;BME280;46841;48.938;9.502;2024-02-15T06:21:17;98952.66;;;7.83;93.54
60970;BME280;46841;48.938;9.502;2024-02-15T06:23:44;98952.66;;;7.83;93.57
60970;BME280;46841;48.938;9.502;2024-02-15T06:26:10;98955.31;;;7.83;93.58
60970;BME280;46841;48.938;9.502;2024-02-15T06:28:36;98959.34;;;7.94;93.27
60970;BME280;46841;48.938;9.502;2024-02-15T06:31:20;98954.66;;;7.89;93.23
60970;BME280;46841;48.938;9.502;2024-02-15T06:34:05;98959.94;;;7.87;93.66
60970;BME280;46841;48.938;9.502;2024-02-15T06:36:52;98949.75;;;7.77;93.82
60970;BME280;46841;48.938;9.502;2024-02-15T06:39:37;98952.47;;;7.79;93.79
60970;BME280;46841;48.938;9.502;2024-02-15T06:42:15;98941.06;;;7.81;93.60
60970;BME280;46841;48.938;9.502;2024-02-15T06:44:46;98958.88;;;7.84;93.32
60970;BME280;46841;48.938;9.502;2024-02-15T06:47:13;98960.13;;;7.92;93.51
60970;BME280;46841;48.938;9.502;2024-02-15T06:49:41;98955.53;;;7.88;93.40
60970;BME280;46841;48.938;9.502;2024-02-15T06:52:10;98954.63;;;7.87;93.18
60970;BME280;46841;48.938;9.502;2024-02-15T06:54:41;98952.25;;;7.95;93.51
60970;BME280;46841;48.938;9.502;2024-02-15T07:57:39;98912.03;;;10.43;82.55
60970;BME280;46841;48.938;9.502;2024-02-15T08:08:15;98894.66;;;12.10;71.62
60970;BME280;46841;48.938;9.502;2024-02-15T08:10:41;98879.66;;;12.90;66.75
60970;BME280;46841;48.938;9.502;2024-02-15T08:13:09;98878.94;;;13.41;65.05
60970;BME280;46841;48.938;9.502;2024-02-15T08:15:34;98879.47;;;13.66;63.67
60970;BME280;46841;48.938;9.502;2024-02-15T08:18:00;98878.13;;;13.91;62.89
60970;BME280;46841;48.938;9.502;2024-02-15T08:20:30;98865.81;;;14.52;61.38
60970;BME280;46841;48.938;9.502;2024-02-15T08:22:56;98866.44;;;13.87;62.07
60970;BME280;46841;48.938;9.502;2024-02-15T08:25:25;98861.88;;;13.81;61.63
60970;BME280;46841;48.938;9.502;2024-02-15T08:27:50;98859.38;;;13.92;60.60
60970;BME280;46841;48.938;9.502;2024-02-15T08:30:17;98860.53;;;13.56;62.11
60970;BME280;46841;48.938;9.502;2024-02-15T08:32:43;98856.50;;;14.33;61.01
60970;BME280;46841;48.938;9.502;2024-02-15T08:35:12;98852.72;;;13.23;62.56
60970;BME280;46841;48.938;9.502;2024-02-15T08:37:39;98850.06;;;13.72;62.45
60970;BME280;46841;48.938;9.502;2024-02-15T08:40:05;98837.34;;;14.10;60.29
60970;BME280;46841;48.938;9.502;2024-02-15T08:42:42;98848.31;;;13.74;62.39
60970;BME280;46841;48.938;9.502;2024-02-15T08:45:08;98843.53;;;14.07;60.94
60970;BME280;46841;48.938;9.502;2024-02-15T08:47:38;98850.41;;;14.43;59.82
60970;BME280;46841;48.938;9.502;2024-02-15T08:50:05;98848.31;;;13.74;60.57
60970;BME280;46841;48.938;9.502;2024-02-15T08:52:32;98852.59;;;13.63;61.64
60970;BME280;46841;48.938;9.502;2024-02-15T08:54:58;98847.03;;;14.00;61.15
60970;BME280;46841;48.938;9.502;2024-02-15T08:57:24;98844.16;;;14.44;59.97
60970;BME280;46841;48.938;9.502;2024-02-15T08:59:51;98838.47;;;14.80;58.90
60970;BME280;46841;48.938;9.502;2024-02-15T09:02:18;98832.72;;;14.54;60.08
60970;BME280;46841;48.938;9.502;2024-02-15T09:04:43;98833.38;;;15.02;58.05
60970;BME280;46841;48.938;9.502;2024-02-15T09:07:09;98842.22;;;14.93;57.40
60970;BME280;46841;48.938;9.502;2024-02-15T09:09:35;98836.97;;;15.02;57.55
60970;BME280;46841;48.938;9.502;2024-02-15T09:12:05;98834.00;;;15.52;56.99
60970;BME280;46841;48.938;9.502;2024-02-15T09:14:34;98819.31;;;16.09;54.40
60970;BME280;46841;48.938;9.502;2024-02-15T09:17:03;98829.94;;;15.93;54.93
60970;BME280;46841;48.938;9.502;2024-02-15T09:19:34;98825.63;;;16.11;53.64
60970;BME280;46841;48.938;9.502;2024-02-15T09:22:00;98820.84;;;16.94;52.44
60970;BME280;46841;48.938;9.502;2024-02-15T09:24:25;98823.88;;;16.15;53.72
60970;BME280;46841;48.938;9.502;2024-02-15T09:26:51;98814.50;;;16.86;52.77
60970;BME280;46841;48.938;9.502;2024-02-15T09:29:18;98821.69;;;16.84;51.47
60970;BME280;46841;48.938;9.502;2024-02-15T09:31:47;98818.03;;;16.76;51.77
60970;BME280;46841;48.938;9.502;2024-02-15T09:34:12;98831.13;;;16.25;52.42
60970;BME280;46841;48.938;9.502;2024-02-15T09:36:39;98821.97;;;17.53;49.56
60970;BME280;46841;48.938;9.502;2024-02-15T09:39:04;98824.78;;;18.81;47.01
60970;BME280;46841;48.938;9.502;2024-02-15T09:41:32;98819.31;;;17.54;48.63
60970;BME280;46841;48.938;9.502;2024-02-15T09:44:01;98814.03;;;18.22;47.17
60970;BME280;46841;48.938;9.502;2024-02-15T09:46:27;98805.66;;;19.36;44.82
60970;BME280;46841;48.938;9.502;2024-02-15T09:48:55;98793.28;;;20.34;42.75
60970;BME280;46841;48.938;9.502;2024-02-15T09:51:26;98808.59;;;18.05;46.61
60970;BME280;46841;48.938;9.502;2024-02-15T09:53:52;98789.56;;;20.44;42.18
60970;BME280;46841;48.938;9.502;2024-02-15T09:56:20;98789.53;;;20.53;41.99
60970;BME280;46841;48.938;9.502;2024-02-15T09:58:47;98799.50;;;18.91;43.95
60970;BME280;46841;48.938;9.502;2024-02-15T10:01:13;98801.41;;;17.84;46.44
60970;BME280;46841;48.938;9.502;2024-02-15T10:03:40;98799.59;;;17.83;46.51
60970;BME280;46841;48.938;9.502;2024-02-15T10:06:06;98795.78;;;17.18;47.70
60970;BME280;46841;48.938;9.502;2024-02-15T10:08:31;98786.75;;;19.29;44.83
60970;BME280;46841;48.938;9.502;2024-02-15T10:11:07;98787.66;;;19.28;43.10
60970;BME280;46841;48.938;9.502;2024-02-15T10:13:35;98785.75;;;20.68;40.79
60970;BME280;46841;48.938;9.502;2024-02-15T10:16:21;98779.72;;;21.20;39.15
60970;BME280;46841;48.938;9.502;2024-02-15T10:18:50;98780.25;;;19.66;42.83
60970;BME280;46841;48.938;9.502;2024-02-15T10:21:25;98779.16;;;19.95;41.12
60970;BME280;46841;48.938;9.502;2024-02-15T10:24:08;98765.78;;;20.77;39.41
60970;BME280;46841;48.938;9.502;2024-02-15T10:26:41;98778.19;;;20.04;40.49
60970;BME280;46841;48.938;9.502;2024-02-15T10:29:19;98762.97;;;22.17;37.69
60970;BME280;46841;48.938;9.502;2024-02-15T10:31:55;98761.91;;;21.65;36.96
60970;BME280;46841;48.938;9.502;2024-02-15T10:34:31;98761.69;;;20.30;39.84
60970;BME280;46841;48.938;9.502;2024-02-15T10:39:38;98758.00;;;21.20;39.25
60970;BME280;46841;48.938;9.502;2024-02-15T10:42:06;98746.66;;;22.17;36.43
60970;BME280;46841;48.938;9.502;2024-02-15T10:44:42;98742.44;;;22.50;35.47
60970;BME280;46841;48.938;9.502;2024-02-15T10:47:13;98740.31;;;22.67;35.20
60970;BME280;46841;48.938;9.502;2024-02-15T10:49:42;98733.25;;;22.03;36.18
60970;BME280;46841;48.938;9.502;2024-02-15T10:52:09;98735.88;;;20.83;37.45
60970;BME280;46841;48.938;9.502;2024-02-15T10:55:04;98729.75;;;20.65;38.21
60970;BME280;46841;48.938;9.502;2024-02-15T10:57:37;98725.53;;;20.34;38.75
60970;BME280;46841;48.938;9.502;2024-02-15T11:00:23;98728.81;;;20.68;39.17
60970;BME280;46841;48.938;9.502;2024-02-15T11:03:24;98720.84;;;20.56;38.60
60970;BME280;46841;48.938;9.502;2024-02-15T11:05:52;98717.56;;;22.23;36.47
60970;BME280;46841;48.938;9.502;2024-02-15T11:08:24;98709.19;;;21.82;36.58
60970;BME280;46841;48.938;9.502;2024-02-15T11:10:50;98719.81;;;19.66;40.13
60970;BME280;46841;48.938;9.502;2024-02-15T11:13:17;98715.78;;;18.71;41.94
60970;BME280;46841;48.938;9.502;2024-02-15T11:15:46;98703.88;;;21.74;35.55
60970;BME280;46841;48.938;9.502;2024-02-15T11:21:15;98702.94;;;19.22;40.57
60970;BME280;46841;48.938;9.502;2024-02-15T11:23:42;98691.13;;;20.40;39.61
60970;BME280;46841;48.938;9.502;2024-02-15T11:26:45;98681.31;;;22.71;35.60
60970;BME280;46841;48.938;9.502;2024-02-15T11:28:55;98683.88;;;20.44;37.48
60970;BME280;46841;48.938;9.502;2024-02-15T11:31:52;98678.28;;;22.40;34.71
60970;BME280;46841;48.938;9.502;2024-02-15T11:34:44;98680.88;;;22.92;32.74
60970;BME280;46841;48.938;9.502;2024-02-15T11:40:27;98674.06;;;20.32;37.50
60970;BME280;46841;48.938;9.502;2024-02-15T11:42:59;98663.28;;;21.01;36.53
60970;BME280;46841;48.938;9.502;2024-02-15T11:45:26;98654.81;;;22.36;36.60
60970;BME280;46841;48.938;9.502;2024-02-15T11:47:53;98658.06;;;22.05;35.47
60970;BME280;46841;48.938;9.502;2024-02-15T11:50:20;98653.34;;;20.28;37.87
60970;BME280;46841;48.938;9.502;2024-02-15T11:52:51;98648.94;;;20.95;37.43
60970;BME280;46841;48.938;9.502;2024-02-15T11:55:21;98648.69;;;21.72;34.43
60970;BME280;46841;48.938;9.502;2024-02-15T11:57:57;98644.84;;;21.84;35.07
60970;BME280;46841;48.938;9.502;2024-02-15T12:00:49;98649.22;;;19.87;38.13
60970;BME280;46841;48.938;9.502;2024-02-15T12:03:35;98638.16;;;20.90;38.09
60970;BME280;46841;48.938;9.502;2024-02-15T12:06:19;98642.47;;;20.30;37.65
60970;BME280;46841;48.938;9.502;2024-02-15T12:09:03;98630.28;;;22.82;33.77
60970;BME280;46841;48.938;9.502;2024-02-15T12:11:47;98628.19;;;22.96;33.34
60970;BME280;46841;48.938;9.502;2024-02-15T12:14:41;98628.88;;;21.67;36.20
60970;BME280;46841;48.938;9.502;2024-02-15T12:17:27;98630.63;;;20.41;37.61
60970;BME280;46841;48.938;9.502;2024-02-15T12:20:14;98628.09;;;22.56;33.56
60970;BME280;46841;48.938;9.502;2024-02-15T12:22:47;98627.75;;;21.78;35.55
60970;BME280;46841;48.938;9.502;2024-02-15T12:25:15;98623.50;;;23.03;33.13
60970;BME280;46841;48.938;9.502;2024-02-15T12:27:43;98632.06;;;21.38;36.00
60970;BME280;46841;48.938;9.502;2024-02-15T12:30:16;98616.56;;;23.66;31.74
60970;BME280;46841;48.938;9.502;2024-02-15T12:32:45;98625.75;;;22.83;32.49
60970;BME280;46841;48.938;9.502;2024-02-15T12:35:16;98622.41;;;22.68;32.70
60970;BME280;46841;48.938;9.502;2024-02-15T12:38:05;98621.25;;;22.37;35.15
60970;BME280;46841;48.938;9.502;2024-02-15T12:40:32;98605.63;;;24.03;31.15
60970;BME280;46841;48.938;9.502;2024-02-15T12:42:59;98601.94;;;22.94;32.90
60970;BME280;46841;48.938;9.502;2024-02-15T12:45:31;98606.91;;;22.30;34.86
60970;BME280;46841;48.938;9.502;2024-02-15T12:47:58;98601.16;;;21.97;34.61
60970;BME280;46841;48.938;9.502;2024-02-15T12:50:27;98596.31;;;22.15;35.05
60970;BME280;46841;48.938;9.502;2024-02-15T12:52:53;98586.25;;;22.20;33.54
60970;BME280;46841;48.938;9.502;2024-02-15T12:55:22;98586.25;;;21.70;34.14
60970;BME280;46841;48.938;9.502;2024-02-15T12:57:54;98589.31;;;19.22;39.37
60970;BME280;46841;48.938;9.502;2024-02-15T13:02:50;98574.84;;;19.31;39.32
60970;BME280;46841;48.938;9.502;2024-02-15T13:05:17;98573.50;;;20.58;38.67
60970;BME280;46841;48.938;9.502;2024-02-15T13:07:50;98569.13;;;20.45;37.63
60970;BME280;46841;48.938;9.502;2024-02-15T13:10:16;98558.91;;;19.93;38.82
60970;BME280;46841;48.938;9.502;2024-02-15T13:12:42;98566.41;;;19.69;39.13
60970;BME280;46841;48.938;9.502;2024-02-15T13:15:11;98565.59;;;19.55;39.84
60970;BME280;46841;48.938;9.502;2024-02-15T13:17:46;98552.31;;;19.31;40.20
60970;BME280;46841;48.938;9.502;2024-02-15T13:20:14;98552.84;;;18.39;41.70
60970;BME280;46841;48.938;9.502;2024-02-15T13:22:41;98547.50;;;18.36;42.00
60970;BME280;46841;48.938;9.502;2024-02-15T13:25:09;98549.09;;;18.75;41.93
60970;BME280;46841;48.938;9.502;2024-02-15T13:27:38;98539.84;;;20.02;39.66
60970;BME280;46841;48.938;9.502;2024-02-15T13:30:06;98537.75;;;19.42;40.14
60970;BME280;46841;48.938;9.502;2024-02-15T13:32:53;98534.41;;;20.05;39.26
60970;BME280;46841;48.938;9.502;2024-02-15T13:35:22;98524.72;;;19.84;39.12
60970;BME280;46841;48.938;9.502;2024-02-15T13:37:55;98533.88;;;18.53;41.37
60970;BME280;46841;48.938;9.502;2024-02-15T13:40:24;98524.69;;;18.86;40.91
60970;BME280;46841;48.938;9.502;2024-02-15T13:42:53;98519.75;;;19.38;40.49
60970;BME280;46841;48.938;9.502;2024-02-15T13:45:41;98519.47;;;18.49;41.71
60970;BME280;46841;48.938;9.502;2024-02-15T13:48:07;98514.19;;;19.54;39.72
60970;BME280;46841;48.938;9.502;2024-02-15T13:50:33;98509.97;;;19.23;40.75
60970;BME280;46841;48.938;9.502;2024-02-15T13:52:59;98506.72;;;18.80;41.91
60970;BME280;46841;48.938;9.502;2024-02-15T13:55:26;98510.19;;;18.99;41.76
60970;BME280;46841;48.938;9.502;2024-02-15T13:57:52;98503.63;;;17.69;43.84
60970;BME280;46841;48.938;9.502;2024-02-15T14:00:18;98508.06;;;17.95;43.18
60970;BME280;46841;48.938;9.502;2024-02-15T14:02:52;98507.84;;;18.35;42.99
60970;BME280;46841;48.938;9.502;2024-02-15T14:05:25;98508.97;;;17.97;42.94
60970;BME280;46841;48.938;9.502;2024-02-15T14:07:55;98500.44;;;18.78;42.44
60970;BME280;46841;48.938;9.502;2024-02-15T14:10:38;98507.19;;;17.72;44.35
60970;BME280;46841;48.938;9.502;2024-02-15T14:13:05;98511.69;;;17.92;44.34
60970;BME280;46841;48.938;9.502;2024-02-15T14:15:34;98506.97;;;18.36;43.95
60970;BME280;46841;48.938;9.502;2024-02-15T14:18:10;98508.97;;;17.89;44.46
60970;BME280;46841;48.938;9.502;2024-02-15T14:20:36;98504.41;;;18.05;45.48
60970;BME280;46841;48.938;9.502;2024-02-15T14:23:03;98499.75;;;18.41;44.67
60970;BME280;46841;48.938;9.502;2024-02-15T14:25:32;98494.50;;;18.12;44.17
60970;BME280;46841;48.938;9.502;2024-02-15T14:27:58;98490.97;;;17.93;44.68
60970;BME280;46841;48.938;9.502;2024-02-15T14:30:24;98492.72;;;18.00;44.51
60970;BME280;46841;48.938;9.502;2024-02-15T14:33:10;98492.53;;;18.41;44.67
60970;BME280;46841;48.938;9.502;2024-02-15T14:35:43;98490.78;;;18.36;44.24
60970;BME280;46841;48.938;9.502;2024-02-15T14:38:12;98475.72;;;17.84;45.65